Time;durP1;ratioP1;P1;durP2;ratioP2;P2;SDS_P1;SDS_P2;PMS_P1;PMS_P2;Temp;Humidity;BMP_temperature;BMP_pressure;BME280_temperature;BME280_humidity;BME280_pressure;Samples;Min_cycle;Max_cycle;Signal;HPM_P1;HPM_P2
2021/10/23 00:00:44;;;;;;;125.00;20.80;;;6.90;99.90;;;;;;6195843;23;20751;-77
2021/10/23 00:03:14;;;;;;;202.07;31.63;;;6.90;99.90;;;;;;6159380;23;20467;-77
2021/10/23 00:05:44;;;;;;;178.63;30.73;;;6.90;99.90;;;;;;6159496;23;20412;-77
2021/10/23 00:08:17;;;;;;;188.17;27.40;;;6.90;99.90;;;;;;6186233;23;20426;-77
2021/10/23 00:10:50;;;;;;;91.80;14.93;;;7.00;99.90;;;;;;6195874;23;20415;-76
2021/10/23 00:13:18;;;;;;;169.17;22.50;;;7.00;99.90;;;;;;6159684;23;20466;-77
2021/10/23 00:15:46;;;;;;;143.57;22.40;;;6.90;99.90;;;;;;6159584;23;20411;-77
2021/10/23 00:18:15;;;;;;;116.73;26.80;;;6.90;99.90;;;;;;6186089;23;20422;-77
2021/10/23 00:20:46;;;;;;;160.30;21.43;;;6.90;99.90;;;;;;6159686;23;20441;-77
2021/10/23 00:23:15;;;;;;;131.27;23.07;;;7.00;99.90;;;;;;6186137;23;20485;-77
2021/10/23 00:25:44;;;;;;;155.03;29.00;;;7.00;99.90;;;;;;6159523;23;20416;-77
2021/10/23 00:28:12;;;;;;;219.17;28.30;;;6.90;99.90;;;;;;6159418;23;20428;-77
2021/10/23 00:30:43;;;;;;;225.20;37.63;;;7.00;99.90;;;;;;6159271;23;20435;-77
2021/10/23 00:33:13;;;;;;;147.97;28.47;;;7.00;99.90;;;;;;6159481;23;20412;-77
2021/10/23 00:35:41;;;;;;;187.53;28.77;;;7.00;99.90;;;;;;6195771;23;20384;-77
2021/10/23 00:38:09;;;;;;;178.93;32.40;;;6.90;99.90;;;;;;6159315;23;20419;-77
2021/10/23 00:40:38;;;;;;;154.07;24.13;;;6.90;99.90;;;;;;6159042;23;20446;-77
2021/10/23 00:43:07;;;;;;;128.67;22.03;;;6.90;99.90;;;;;;6159284;23;21035;-77
2021/10/23 00:45:36;;;;;;;186.97;31.07;;;6.90;99.90;;;;;;6159601;23;20420;-77
2021/10/23 00:48:06;;;;;;;180.23;24.83;;;6.90;99.90;;;;;;6161686;23;20423;-77
2021/10/23 00:50:34;;;;;;;153.30;25.07;;;6.90;99.90;;;;;;6161486;23;20834;-77
2021/10/23 00:53:04;;;;;;;124.47;21.07;;;6.90;99.90;;;;;;6161298;23;20478;-77
2021/10/23 00:55:32;;;;;;;117.43;22.70;;;6.90;99.90;;;;;;6161523;23;20447;-77
2021/10/23 00:58:01;;;;;;;133.77;22.97;;;6.90;99.90;;;;;;6161875;23;20519;-77
2021/10/23 01:00:30;;;;;;;171.40;24.63;;;6.90;99.90;;;;;;6161216;23;20439;-77
2021/10/23 01:02:59;;;;;;;210.87;27.57;;;6.90;99.90;;;;;;6161361;23;20435;-77
2021/10/23 01:05:28;;;;;;;166.97;28.50;;;6.90;99.90;;;;;;6161307;23;20418;-77
2021/10/23 01:07:59;;;;;;;163.37;29.43;;;6.90;99.90;;;;;;6161182;23;20766;-77
2021/10/23 01:10:27;;;;;;;223.70;32.87;;;6.90;99.90;;;;;;6162150;23;20742;-77
2021/10/23 01:12:57;;;;;;;157.30;25.97;;;6.80;99.90;;;;;;6161247;23;20478;-77
2021/10/23 01:15:29;;;;;;;165.20;28.57;;;6.80;99.90;;;;;;6162052;23;20948;-76
2021/10/23 01:18:01;;;;;;;169.97;22.57;;;6.80;99.90;;;;;;6198200;23;20384;-77
2021/10/23 01:20:32;;;;;;;213.37;35.50;;;6.80;99.90;;;;;;6161508;23;20486;-77
2021/10/23 01:23:03;;;;;;;167.10;26.53;;;6.80;99.90;;;;;;6161035;23;20489;-77
2021/10/23 01:25:35;;;;;;;203.70;34.63;;;6.80;99.90;;;;;;6161108;23;20415;-77
2021/10/23 01:28:05;;;;;;;126.87;22.70;;;6.80;99.90;;;;;;6161052;23;20407;-77
2021/10/23 01:30:33;;;;;;;109.73;25.07;;;6.70;99.90;;;;;;6161018;23;20439;-77
2021/10/23 01:33:02;;;;;;;197.37;27.30;;;6.70;99.90;;;;;;6160916;23;20910;-77
2021/10/23 01:35:32;;;;;;;226.77;37.50;;;6.70;99.90;;;;;;6161100;23;20461;-77
2021/10/23 01:38:04;;;;;;;175.57;29.27;;;6.70;99.90;;;;;;6160911;23;20450;-77
2021/10/23 01:40:34;;;;;;;237.37;30.10;;;6.70;99.90;;;;;;6160607;23;20450;-77
2021/10/23 01:43:04;;;;;;;130.27;19.17;;;6.70;99.90;;;;;;6160902;23;20455;-77
2021/10/23 01:45:35;;;;;;;169.90;24.63;;;6.70;99.90;;;;;;6160941;23;20798;-77
2021/10/23 01:48:05;;;;;;;192.77;24.67;;;6.70;99.90;;;;;;6160773;23;20429;-77
2021/10/23 01:50:35;;;;;;;121.53;26.83;;;6.70;99.90;;;;;;6161275;23;20529;-77
2021/10/23 01:53:03;;;;;;;134.03;16.83;;;6.70;99.90;;;;;;6197306;23;20438;-76
2021/10/23 01:55:31;;;;;;;183.30;26.17;;;6.70;99.90;;;;;;6160957;23;20422;-76
2021/10/23 01:57:59;;;;;;;215.33;32.27;;;6.70;99.90;;;;;;6187246;23;20744;-76
2021/10/23 02:00:28;;;;;;;154.83;29.67;;;6.70;99.90;;;;;;6160942;23;20436;-77
2021/10/23 02:02:57;;;;;;;127.60;22.33;;;6.70;99.90;;;;;;6160575;23;20990;-77
2021/10/23 02:05:26;;;;;;;136.57;18.23;;;6.70;99.90;;;;;;6187265;23;20916;-77
2021/10/23 02:07:55;;;;;;;137.60;23.13;;;6.70;99.90;;;;;;6160637;23;20503;-77
2021/10/23 02:10:23;;;;;;;213.67;34.03;;;6.70;99.90;;;;;;6160622;23;20527;-77
2021/10/23 02:12:51;;;;;;;126.70;18.63;;;6.70;99.90;;;;;;6160577;23;20454;-77
2021/10/23 02:15:20;;;;;;;119.30;27.47;;;6.70;99.90;;;;;;6161448;23;20412;-77
2021/10/23 02:17:48;;;;;;;102.53;14.83;;;6.70;99.90;;;;;;6160459;23;20447;-77
2021/10/23 02:20:16;;;;;;;80.40;16.50;;;6.70;99.90;;;;;;6160573;23;20506;-77
2021/10/23 02:22:45;;;;;;;123.43;23.73;;;6.70;99.90;;;;;;6160643;23;20419;-77
2021/10/23 02:25:15;;;;;;;141.83;23.10;;;6.60;99.90;;;;;;6160542;23;20443;-77
2021/10/23 02:27:43;;;;;;;145.17;28.37;;;6.70;99.90;;;;;;6187072;23;20418;-77
2021/10/23 02:30:12;;;;;;;96.17;18.33;;;6.70;99.90;;;;;;6186709;23;20485;-77
2021/10/23 02:32:40;;;;;;;144.83;31.83;;;6.70;99.90;;;;;;6160369;23;20451;-77
2021/10/23 02:35:10;;;;;;;148.23;29.90;;;6.70;99.90;;;;;;6160462;23;20491;-77
2021/10/23 02:37:44;;;;;;;168.50;26.03;;;6.70;99.90;;;;;;6160444;23;20415;-77
2021/10/23 02:40:16;;;;;;;124.30;22.63;;;6.80;99.90;;;;;;6160481;23;20451;-77
2021/10/23 02:42:46;;;;;;;173.00;21.30;;;6.80;99.90;;;;;;6160215;23;20411;-77
2021/10/23 02:45:15;;;;;;;173.13;20.00;;;6.80;99.90;;;;;;6196570;23;20970;-77
2021/10/23 02:47:43;;;;;;;123.60;28.23;;;6.80;99.90;;;;;;6160637;23;20438;-77
2021/10/23 02:50:11;;;;;;;191.50;30.70;;;6.80;99.90;;;;;;6196722;23;20424;-77
2021/10/23 02:52:39;;;;;;;88.93;16.57;;;6.80;99.90;;;;;;6160446;23;20426;-77
2021/10/23 02:55:08;;;;;;;175.47;29.00;;;6.80;99.90;;;;;;6160144;23;20414;-77
2021/10/23 02:57:38;;;;;;;298.10;39.37;;;6.80;99.90;;;;;;6196594;23;20906;-77
2021/10/23 03:00:08;;;;;;;159.13;22.33;;;6.80;99.90;;;;;;6160099;23;20522;-76
2021/10/23 03:02:36;;;;;;;149.73;29.07;;;6.80;99.90;;;;;;6160342;23;20754;-77
2021/10/23 03:05:06;;;;;;;216.73;32.30;;;6.80;99.90;;;;;;6160039;23;20439;-77
2021/10/23 03:07:34;;;;;;;127.03;25.23;;;6.80;99.90;;;;;;6160061;23;20415;-77
2021/10/23 03:10:06;;;;;;;190.53;21.33;;;6.80;99.90;;;;;;6187218;23;20447;-77
2021/10/23 03:12:34;;;;;;;212.17;37.40;;;6.80;99.90;;;;;;6186354;23;20934;-77
2021/10/23 03:15:05;;;;;;;83.53;13.60;;;6.80;99.90;;;;;;6160096;23;21002;-77
2021/10/23 03:17:33;;;;;;;95.97;20.73;;;6.90;99.90;;;;;;6159999;23;20443;-77
2021/10/23 03:20:02;;;;;;;159.73;29.10;;;6.90;99.90;;;;;;6160418;23;20818;-77
2021/10/23 03:22:30;;;;;;;189.67;29.57;;;6.90;99.90;;;;;;6186651;23;20775;-77
2021/10/23 03:24:58;;;;;;;190.93;32.63;;;6.90;99.90;;;;;;6186688;23;20434;-77
2021/10/23 03:27:27;;;;;;;124.93;24.17;;;6.90;99.90;;;;;;6159857;23;20455;-77
2021/10/23 03:29:55;;;;;;;202.13;31.63;;;6.90;99.90;;;;;;6196255;23;20771;-77
2021/10/23 03:32:25;;;;;;;171.00;23.83;;;6.90;99.90;;;;;;6196231;23;20427;-77
2021/10/23 03:34:54;;;;;;;205.73;31.27;;;7.00;99.90;;;;;;6186416;23;20461;-77
2021/10/23 03:37:23;;;;;;;204.43;32.10;;;7.00;99.90;;;;;;6159892;23;20506;-77
2021/10/23 03:39:51;;;;;;;168.67;26.90;;;7.00;99.90;;;;;;6196139;23;20445;-77
2021/10/23 03:42:26;;;;;;;198.03;28.53;;;7.00;99.90;;;;;;6187113;23;20411;-77
2021/10/23 03:44:55;;;;;;;152.93;20.50;;;7.00;99.90;;;;;;6159498;23;20467;-77
2021/10/23 03:47:24;;;;;;;163.77;28.33;;;7.00;99.90;;;;;;6160044;23;20415;-77
2021/10/23 03:49:52;;;;;;;225.47;37.93;;;7.00;99.90;;;;;;6159673;23;20463;-76
2021/10/23 03:52:20;;;;;;;98.33;20.97;;;6.90;99.90;;;;;;6159677;23;20506;-77
2021/10/23 03:54:48;;;;;;;128.17;22.13;;;7.00;99.90;;;;;;6159659;23;20419;-77
2021/10/23 03:57:17;;;;;;;171.83;34.57;;;6.90;99.90;;;;;;6196042;23;20805;-77
2021/10/23 03:59:45;;;;;;;135.13;26.10;;;6.90;99.90;;;;;;6159604;23;20442;-77
2021/10/23 04:02:13;;;;;;;230.53;30.97;;;6.90;99.90;;;;;;6159704;23;20407;-77
2021/10/23 04:04:43;;;;;;;99.37;22.43;;;6.90;99.90;;;;;;6195882;23;20431;-77
2021/10/23 04:07:11;;;;;;;120.13;20.30;;;6.90;99.90;;;;;;6159547;23;20450;-77
2021/10/23 04:09:39;;;;;;;149.03;24.43;;;6.90;99.90;;;;;;6159511;23;20514;-77
2021/10/23 04:12:07;;;;;;;195.60;39.10;;;6.80;99.90;;;;;;6195933;23;20424;-77
2021/10/23 04:14:35;;;;;;;172.80;28.53;;;6.80;99.90;;;;;;6159534;23;20434;-77
2021/10/23 04:17:04;;;;;;;169.40;27.17;;;6.80;99.90;;;;;;6159628;23;20753;-77
2021/10/23 04:19:32;;;;;;;202.40;34.40;;;6.80;99.90;;;;;;6159876;23;20436;-77
2021/10/23 04:22:02;;;;;;;234.63;34.90;;;6.80;99.90;;;;;;6159513;23;20803;-77
2021/10/23 04:24:32;;;;;;;138.53;24.43;;;6.80;99.90;;;;;;6159311;23;20962;-77
2021/10/23 04:27:02;;;;;;;155.23;21.07;;;6.80;99.90;;;;;;6159483;23;20498;-77
2021/10/23 04:29:30;;;;;;;197.73;38.50;;;6.80;99.90;;;;;;6159479;23;20528;-77
2021/10/23 04:31:58;;;;;;;112.33;12.10;;;6.80;99.90;;;;;;6159362;23;20421;-77
2021/10/23 04:34:26;;;;;;;195.87;34.60;;;6.70;99.90;;;;;;6159274;23;20426;-77
2021/10/23 04:36:54;;;;;;;138.60;19.27;;;6.80;99.90;;;;;;6185928;23;20902;-77
2021/10/23 04:39:25;;;;;;;223.00;27.53;;;6.80;99.90;;;;;;6159436;23;20845;-77
2021/10/23 04:41:55;;;;;;;163.53;27.87;;;6.80;99.90;;;;;;6159346;23;20450;-77
2021/10/23 04:44:23;;;;;;;217.40;30.23;;;6.80;99.90;;;;;;6159346;23;20427;-77
2021/10/23 04:46:52;;;;;;;159.77;18.53;;;6.80;99.90;;;;;;6159240;23;20443;-77
2021/10/23 04:49:20;;;;;;;198.63;35.20;;;6.80;99.90;;;;;;6185925;23;20478;-77
2021/10/23 04:51:48;;;;;;;93.43;23.37;;;6.80;99.90;;;;;;6159547;23;20424;-77
2021/10/23 04:54:16;;;;;;;161.43;26.07;;;6.70;99.90;;;;;;6159413;23;20415;-77
2021/10/23 04:56:46;;;;;;;146.07;25.63;;;6.70;99.90;;;;;;6186014;23;20431;-77
2021/10/23 04:59:33;;;;;;;187.30;25.90;;;6.70;99.90;;;;;;6159388;23;20977;-77
2021/10/23 05:02:05;;;;;;;131.97;22.07;;;6.70;99.90;;;;;;6186751;23;20736;-77
2021/10/23 05:04:35;;;;;;;180.63;23.47;;;6.70;99.90;;;;;;6158750;23;20863;-77
2021/10/23 05:07:03;;;;;;;142.10;22.87;;;6.70;99.90;;;;;;6195444;23;20434;-77
2021/10/23 05:09:32;;;;;;;187.53;31.20;;;6.70;99.90;;;;;;6195744;23;20902;-77
2021/10/23 05:12:01;;;;;;;148.00;23.20;;;6.70;99.90;;;;;;6159160;23;20902;-77
2021/10/23 05:14:32;;;;;;;150.07;17.57;;;6.70;99.90;;;;;;6185943;23;20762;-77
2021/10/23 05:17:00;;;;;;;155.70;22.40;;;6.70;99.90;;;;;;6159350;23;20455;-77
2021/10/23 05:19:28;;;;;;;112.33;17.97;;;6.70;99.90;;;;;;6159496;23;20439;-77
2021/10/23 05:21:56;;;;;;;102.97;19.00;;;6.70;99.90;;;;;;6159455;23;20415;-77
2021/10/23 05:24:25;;;;;;;94.07;15.53;;;6.70;99.90;;;;;;6185301;23;20499;-77
2021/10/23 05:26:53;;;;;;;136.50;21.27;;;6.70;99.90;;;;;;6195941;23;20427;-77
2021/10/23 05:29:23;;;;;;;163.20;24.37;;;6.70;99.90;;;;;;6195316;23;20427;-77
2021/10/23 05:31:51;;;;;;;115.33;20.70;;;6.70;99.90;;;;;;6159186;23;20454;-77
2021/10/23 05:34:20;;;;;;;152.00;23.57;;;6.70;99.90;;;;;;6161036;23;20433;-77
2021/10/23 05:36:49;;;;;;;99.40;17.13;;;6.70;99.90;;;;;;6197997;23;20423;-77
2021/10/23 05:39:17;;;;;;;138.73;19.30;;;6.70;99.90;;;;;;6160553;23;20522;-77
2021/10/23 05:41:45;;;;;;;201.77;26.00;;;6.70;99.90;;;;;;6187331;23;20843;-77
2021/10/23 05:44:13;;;;;;;154.63;28.00;;;6.80;99.90;;;;;;6161391;23;20421;-77
2021/10/23 05:46:43;;;;;;;139.23;22.10;;;6.80;99.90;;;;;;6160765;23;20427;-77
2021/10/23 05:49:11;;;;;;;207.57;32.13;;;6.80;99.90;;;;;;6186910;23;20984;-77
2021/10/23 05:51:40;;;;;;;158.23;22.00;;;6.80;99.90;;;;;;6160745;23;20736;-77
2021/10/23 05:54:08;;;;;;;124.80;19.80;;;6.70;99.90;;;;;;6160903;23;20494;-77
2021/10/23 05:56:36;;;;;;;197.47;26.40;;;6.80;99.90;;;;;;6160719;23;20895;-77
2021/10/23 05:59:11;;;;;;;102.00;16.53;;;6.80;99.90;;;;;;6160705;23;20423;-77
2021/10/23 06:01:40;;;;;;;164.10;21.83;;;6.70;99.90;;;;;;6187688;23;20867;-77
2021/10/23 06:04:09;;;;;;;203.40;34.50;;;6.80;99.90;;;;;;6160659;23;20419;-77
2021/10/23 06:06:38;;;;;;;142.80;21.93;;;6.80;99.90;;;;;;6187591;23;20514;-77
2021/10/23 06:09:07;;;;;;;165.60;20.87;;;6.80;99.90;;;;;;6186746;23;20502;-77
2021/10/23 06:11:35;;;;;;;129.70;25.70;;;6.80;99.90;;;;;;6160569;23;20909;-77
2021/10/23 06:14:04;;;;;;;116.70;17.43;;;6.80;99.90;;;;;;6160490;23;20415;-77
2021/10/23 06:16:32;;;;;;;164.67;31.27;;;6.80;99.90;;;;;;6196849;23;20483;-77
2021/10/23 06:19:00;;;;;;;122.10;25.67;;;6.80;99.90;;;;;;6160467;23;20911;-77
2021/10/23 06:21:30;;;;;;;164.03;25.33;;;6.80;99.90;;;;;;6160733;23;20475;-77
2021/10/23 06:23:58;;;;;;;143.07;25.47;;;6.80;99.90;;;;;;6160495;23;20808;-78
2021/10/23 06:26:26;;;;;;;126.47;22.63;;;6.90;99.90;;;;;;6160461;23;20439;-77
2021/10/23 06:28:55;;;;;;;209.47;32.13;;;6.90;99.90;;;;;;6196695;23;20752;-77
2021/10/23 06:31:23;;;;;;;252.03;28.63;;;6.90;99.90;;;;;;6187253;23;20407;-77
2021/10/23 06:33:51;;;;;;;108.37;26.37;;;6.90;99.90;;;;;;6160345;23;20412;-77
2021/10/23 06:36:19;;;;;;;84.87;16.83;;;6.90;99.90;;;;;;6160447;23;20417;-77
2021/10/23 06:38:48;;;;;;;147.70;19.87;;;6.90;99.90;;;;;;6160202;23;20447;-77
2021/10/23 06:41:17;;;;;;;165.63;24.23;;;6.90;99.90;;;;;;6160588;23;20462;-77
2021/10/23 06:43:45;;;;;;;145.67;22.27;;;6.90;99.90;;;;;;6160395;23;20507;-77
2021/10/23 06:46:13;;;;;;;173.03;26.83;;;6.90;99.90;;;;;;6160247;23;20459;-77
2021/10/23 06:48:41;;;;;;;153.67;23.17;;;6.90;99.90;;;;;;6160096;23;20415;-77
2021/10/23 06:51:10;;;;;;;142.33;28.73;;;6.90;99.90;;;;;;6160370;23;20760;-77
2021/10/23 06:53:43;;;;;;;98.43;18.73;;;6.90;99.90;;;;;;6160602;23;20539;-78
2021/10/23 06:56:12;;;;;;;192.73;36.10;;;7.00;99.90;;;;;;6160114;23;20422;-77
2021/10/23 06:58:41;;;;;;;159.30;22.10;;;7.00;99.90;;;;;;6160265;23;20419;-77
2021/10/23 07:01:09;;;;;;;177.80;26.07;;;7.00;99.90;;;;;;6160457;23;20503;-78
2021/10/23 07:03:37;;;;;;;173.07;27.33;;;7.00;99.90;;;;;;6160399;23;20506;-77
2021/10/23 07:06:09;;;;;;;95.90;18.73;;;7.10;99.90;;;;;;6160016;23;20427;-77
2021/10/23 07:08:37;;;;;;;155.30;24.10;;;7.00;99.90;;;;;;6159706;23;20479;-77
2021/10/23 07:11:06;;;;;;;151.37;33.33;;;7.10;99.90;;;;;;6159899;23;20418;-78
2021/10/23 07:13:36;;;;;;;228.50;27.33;;;7.10;99.90;;;;;;6160004;23;20474;-77
2021/10/23 07:16:10;;;;;;;103.03;18.43;;;7.10;99.90;;;;;;6160016;23;20878;-77
2021/10/23 07:18:38;;;;;;;148.90;21.77;;;7.10;99.90;;;;;;6160240;23;20807;-78
2021/10/23 07:21:06;;;;;;;168.63;30.50;;;7.10;99.90;;;;;;6160114;23;20514;-78
2021/10/23 07:23:34;;;;;;;130.43;23.40;;;7.10;99.90;;;;;;6160007;23;20498;-77
2021/10/23 07:26:03;;;;;;;146.97;30.47;;;7.10;99.90;;;;;;6159998;23;20423;-77
2021/10/23 07:28:31;;;;;;;115.50;22.40;;;7.20;99.90;;;;;;6196050;23;20396;-78
2021/10/23 07:31:01;;;;;;;104.07;32.53;;;7.20;99.90;;;;;;6159872;23;20407;-77
2021/10/23 07:33:29;;;;;;;120.17;22.20;;;7.20;99.90;;;;;;6159868;23;20426;-77
2021/10/23 07:36:04;;;;;;;148.03;26.07;;;7.20;99.90;;;;;;6159871;23;20411;-78
2021/10/23 07:38:34;;;;;;;154.50;31.33;;;7.30;99.90;;;;;;6186485;23;20435;-78
2021/10/23 07:41:02;;;;;;;135.43;20.17;;;7.30;99.90;;;;;;6159784;23;20926;-77
2021/10/23 07:43:31;;;;;;;163.20;25.53;;;7.30;99.90;;;;;;6159919;23;20921;-77
2021/10/23 07:46:03;;;;;;;115.70;22.60;;;7.40;99.90;;;;;;6160399;23;20424;-77
2021/10/23 07:48:34;;;;;;;115.47;14.50;;;7.50;99.90;;;;;;6159750;23;20435;-78
2021/10/23 07:51:03;;;;;;;148.70;30.00;;;7.60;99.90;;;;;;6159710;23;20907;-77
2021/10/23 07:53:32;;;;;;;187.90;31.07;;;7.70;99.90;;;;;;6159655;23;20510;-77
2021/10/23 07:56:03;;;;;;;146.60;24.33;;;7.80;99.90;;;;;;6159523;23;20879;-77
2021/10/23 07:58:31;;;;;;;194.70;29.47;;;7.80;99.90;;;;;;6159406;23;21026;-78
2021/10/23 08:01:02;;;;;;;215.07;34.27;;;8.00;99.90;;;;;;6159784;23;20411;-78
2021/10/23 08:03:30;;;;;;;144.60;25.37;;;8.10;99.90;;;;;;6159722;23;20427;-78
2021/10/23 08:05:59;;;;;;;208.20;32.97;;;8.10;99.90;;;;;;6159893;23;20415;-78
2021/10/23 08:08:27;;;;;;;222.77;33.90;;;8.20;99.90;;;;;;6159373;23;20927;-78
2021/10/23 08:10:58;;;;;;;214.23;41.70;;;8.20;99.90;;;;;;6159546;23;20498;-77
2021/10/23 08:13:26;;;;;;;216.13;40.90;;;8.20;99.90;;;;;;6159472;23;20502;-77
2021/10/23 08:15:54;;;;;;;213.33;43.93;;;8.30;99.90;;;;;;6159652;23;20420;-78
2021/10/23 08:18:24;;;;;;;226.90;40.03;;;8.30;99.90;;;;;;6159443;23;20408;-77
2021/10/23 08:20:52;;;;;;;210.13;38.17;;;8.40;99.90;;;;;;6159342;23;20419;-78
2021/10/23 08:23:21;;;;;;;193.23;34.80;;;8.40;99.90;;;;;;6159487;23;20502;-77
2021/10/23 08:25:49;;;;;;;184.37;35.20;;;8.40;99.90;;;;;;6195747;23;20398;-77
2021/10/23 08:28:17;;;;;;;143.63;20.40;;;8.50;99.90;;;;;;6195925;23;20463;-78
2021/10/23 08:30:45;;;;;;;236.70;38.83;;;8.50;99.90;;;;;;6185961;23;20420;-77
2021/10/23 08:33:13;;;;;;;180.23;29.57;;;8.50;99.90;;;;;;6159519;23;20808;-79
2021/10/23 08:35:43;;;;;;;214.60;44.90;;;8.60;99.90;;;;;;6159557;23;20503;-78
2021/10/23 08:38:12;;;;;;;205.80;36.57;;;8.60;99.90;;;;;;6159257;23;20531;-77
2021/10/23 08:40:40;;;;;;;195.23;28.53;;;8.70;99.90;;;;;;6159406;23;20516;-77
2021/10/23 08:43:11;;;;;;;161.23;31.77;;;8.70;99.90;;;;;;6159403;23;20473;-78
2021/10/23 08:45:39;;;;;;;164.40;34.23;;;8.80;99.90;;;;;;6186028;23;20411;-77
2021/10/23 08:48:08;;;;;;;151.03;25.20;;;8.80;99.90;;;;;;6159174;23;20449;-78
2021/10/23 08:50:36;;;;;;;159.60;32.40;;;8.90;99.90;;;;;;6195787;23;20415;-77
2021/10/23 08:53:07;;;;;;;184.20;24.60;;;9.00;99.90;;;;;;6159965;23;20458;-77
2021/10/23 08:55:35;;;;;;;199.33;39.73;;;9.10;99.90;;;;;;6159461;23;20532;-77
2021/10/23 08:58:03;;;;;;;191.73;35.23;;;9.10;99.90;;;;;;6159127;23;20411;-77
2021/10/23 09:00:31;;;;;;;167.70;34.83;;;9.20;99.90;;;;;;6159819;23;20926;-77
2021/10/23 09:03:00;;;;;;;211.90;32.20;;;9.30;99.90;;;;;;6159130;23;20430;-78
2021/10/23 09:05:29;;;;;;;56.47;14.43;;;9.30;99.90;;;;;;6159555;23;20415;-77
2021/10/23 09:07:57;;;;;;;164.77;30.67;;;9.30;99.90;;;;;;6196624;23;20868;-78
2021/10/23 09:10:28;;;;;;;116.77;34.27;;;9.40;99.90;;;;;;6187842;23;20415;-77
2021/10/23 09:13:02;;;;;;;114.87;25.47;;;9.40;99.90;;;;;;6161211;23;20432;-78
2021/10/23 09:15:34;;;;;;;140.77;28.23;;;9.50;99.90;;;;;;6161449;23;20409;-77
2021/10/23 09:18:03;;;;;;;310.20;48.53;;;9.50;99.90;;;;;;6161196;23;20757;-77
2021/10/23 09:20:37;;;;;;;230.23;39.90;;;9.60;99.90;;;;;;6161086;23;20834;-78
2021/10/23 09:23:06;;;;;;;280.80;47.13;;;9.70;99.90;;;;;;6161014;23;20502;-77
2021/10/23 09:25:37;;;;;;;294.77;39.80;;;9.70;99.90;;;;;;6197340;23;20433;-77
2021/10/23 09:28:09;;;;;;;368.97;56.10;;;9.80;99.90;;;;;;6187721;23;20423;-78
2021/10/23 09:30:40;;;;;;;379.00;60.73;;;9.90;99.90;;;;;;6161386;23;20494;-78
2021/10/23 09:33:09;;;;;;;280.23;54.97;;;9.90;99.90;;;;;;6187555;23;20419;-78
2021/10/23 09:35:39;;;;;;;385.10;74.83;;;10.00;99.90;;;;;;6161057;23;20527;-77
2021/10/23 09:38:09;;;;;;;304.53;65.57;;;10.00;99.90;;;;;;6161265;23;20461;-78
2021/10/23 09:40:39;;;;;;;305.83;69.00;;;10.10;99.90;;;;;;6187109;23;20959;-78
2021/10/23 09:43:11;;;;;;;312.10;69.27;;;10.10;99.90;;;;;;6161263;23;20506;-78
2021/10/23 09:46:02;;;;;;;363.57;81.27;;;10.10;99.90;;;;;;6160955;23;20411;-78
2021/10/23 09:48:34;;;;;;;353.30;69.30;;;10.20;99.90;;;;;;6160877;23;20459;-78
2021/10/23 09:51:13;;;;;;;362.87;81.57;;;10.20;99.90;;;;;;6197719;23;20422;-78
2021/10/23 09:53:42;;;;;;;432.83;108.27;;;10.30;99.90;;;;;;6187553;23;20407;-78
2021/10/23 09:56:14;;;;;;;426.07;94.67;;;10.30;99.90;;;;;;6160934;23;20506;-77
2021/10/23 09:58:53;;;;;;;424.20;106.33;;;10.30;99.90;;;;;;6160705;23;20423;-77
2021/10/23 10:01:23;;;;;;;613.43;139.10;;;10.40;99.90;;;;;;6197451;23;20479;-78
2021/10/23 10:03:53;;;;;;;477.70;120.83;;;10.50;99.90;;;;;;6160727;23;20423;-77
2021/10/23 10:06:22;;;;;;;542.97;125.90;;;10.50;99.90;;;;;;6160696;23;20790;-77
2021/10/23 10:08:51;;;;;;;548.20;115.93;;;10.60;99.90;;;;;;6187125;23;20466;-78
2021/10/23 10:11:21;;;;;;;550.27;129.13;;;10.60;99.90;;;;;;6160767;23;20423;-77
2021/10/23 10:13:51;;;;;;;589.77;134.30;;;10.70;99.90;;;;;;6187353;23;20412;-78
2021/10/23 10:16:19;;;;;;;600.37;155.40;;;10.70;99.90;;;;;;6187419;23;20434;-78
2021/10/23 10:18:48;;;;;;;533.00;126.37;;;10.80;99.90;;;;;;6196707;23;20466;-78
2021/10/23 10:21:20;;;;;;;446.87;124.70;;;10.80;99.90;;;;;;6160826;23;20427;-77
2021/10/23 10:23:51;;;;;;;603.47;148.00;;;10.80;99.90;;;;;;6196695;23;20391;-78
2021/10/23 10:26:34;;;;;;;345.63;93.00;;;10.90;99.90;;;;;;6187045;23;20388;-77
2021/10/23 10:29:19;;;;;;;387.70;96.30;;;10.90;99.90;;;;;;6160424;23;20542;-78
2021/10/23 10:31:51;;;;;;;414.50;119.63;;;10.90;99.90;;;;;;6160564;23;20434;-78
2021/10/23 10:43:28;;;;;;;377.63;62.10;;;11.10;99.90;;;;;;6156777;23;20438;-78
2021/10/23 10:45:59;;;;;;;481.23;135.40;;;11.20;99.90;;;;;;6160872;23;20863;-77
2021/10/23 10:48:40;;;;;;;618.93;182.43;;;11.20;99.90;;;;;;6186892;23;20450;-77
2021/10/23 10:51:24;;;;;;;379.20;92.93;;;11.30;99.90;;;;;;6160299;23;20447;-77
2021/10/23 10:54:08;;;;;;;637.37;170.63;;;11.30;99.90;;;;;;6160312;23;20446;-77
2021/10/23 10:56:48;;;;;;;528.53;151.47;;;11.30;99.90;;;;;;6183574;23;20787;-78
2021/10/23 10:59:56;;;;;;;407.73;100.37;;;11.40;99.90;;;;;;6196587;23;20417;-77
2021/10/23 11:02:34;;;;;;;570.20;134.47;;;11.40;99.90;;;;;;6160244;23;20962;-78
2021/10/23 11:05:19;;;;;;;334.90;83.37;;;11.50;99.90;;;;;;6160053;23;20411;-78
2021/10/23 11:08:09;;;;;;;445.03;133.63;;;11.50;99.90;;;;;;6159987;23;20736;-78
2021/10/23 11:11:00;;;;;;;696.70;174.83;;;11.60;99.90;;;;;;6159957;23;20533;-77
2021/10/23 11:13:30;;;;;;;677.77;167.17;;;11.60;99.90;;;;;;6196426;23;20439;-78
2021/10/23 11:16:00;;;;;;;1232.10;264.37;;;11.60;99.90;;;;;;6160780;23;20443;-77
2021/10/23 11:18:28;;;;;;;1084.23;263.27;;;11.60;99.90;;;;;;6160229;23;20507;-78
2021/10/23 11:20:57;;;;;;;1653.50;447.07;;;11.70;99.90;;;;;;6196245;23;20399;-78
2021/10/23 11:23:25;;;;;;;1999.90;820.87;;;11.70;99.90;;;;;;6159891;23;20419;-78
2021/10/23 11:25:53;;;;;;;1999.90;843.40;;;11.70;99.90;;;;;;6186628;23;20794;-77
2021/10/23 11:28:21;;;;;;;1999.90;888.73;;;11.70;99.90;;;;;;6159686;23;20423;-77
2021/10/23 11:30:50;;;;;;;1999.90;994.50;;;11.70;99.90;;;;;;6159510;23;20473;-77
2021/10/23 11:33:20;;;;;;;1999.90;999.90;;;11.80;99.90;;;;;;6186704;23;20438;-78
2021/10/23 11:35:51;;;;;;;1999.90;889.70;;;11.80;99.90;;;;;;6159841;23;20415;-77
2021/10/23 11:38:22;;;;;;;1999.90;899.17;;;11.90;99.90;;;;;;6196454;23;20422;-77
2021/10/23 11:40:55;;;;;;;1999.90;954.10;;;11.90;99.90;;;;;;6185937;23;20457;-77
2021/10/23 11:43:23;;;;;;;1999.90;999.90;;;12.00;99.90;;;;;;6159886;23;20408;-77
2021/10/23 11:45:52;;;;;;;1999.90;999.90;;;12.00;99.90;;;;;;6159530;23;20417;-77
2021/10/23 11:48:21;;;;;;;1999.90;999.90;;;12.10;99.90;;;;;;6159351;23;20892;-77
2021/10/23 11:50:51;;;;;;;1999.90;994.93;;;12.20;99.90;;;;;;6159572;23;20454;-77
2021/10/23 11:53:20;;;;;;;1999.90;999.90;;;12.20;99.90;;;;;;6159684;23;20511;-78
2021/10/23 11:55:52;;;;;;;1999.90;999.90;;;12.20;99.90;;;;;;6159682;23;20502;-77
2021/10/23 11:58:25;;;;;;;1999.90;999.90;;;12.20;99.90;;;;;;6196224;23;20416;-77
2021/10/23 12:00:59;;;;;;;1999.90;999.90;;;12.30;99.90;;;;;;6159914;23;20438;-77
2021/10/23 12:03:32;;;;;;;1999.90;886.40;;;12.30;99.90;;;;;;6196306;23;20757;-77
2021/10/23 12:06:12;;;;;;;1999.90;992.37;;;12.30;99.90;;;;;;6159549;23;20447;-77
2021/10/23 12:08:40;;;;;;;1999.90;670.30;;;12.30;99.90;;;;;;6186071;23;20427;-77
2021/10/23 12:11:13;;;;;;;1999.90;999.90;;;12.30;99.90;;;;;;6159628;23;20502;-77
2021/10/23 12:13:53;;;;;;;1999.90;999.90;;;12.30;99.90;;;;;;6159641;23;20415;-77
2021/10/23 12:16:33;;;;;;;1999.90;951.87;;;12.30;99.90;;;;;;6159542;23;20458;-78
2021/10/23 12:19:07;;;;;;;1999.90;935.73;;;12.30;99.90;;;;;;6159523;23;20435;-78
2021/10/23 12:21:50;;;;;;;1999.90;999.90;;;12.40;99.90;;;;;;6160494;23;20915;-78
2021/10/23 12:24:31;;;;;;;1999.90;819.40;;;12.40;99.90;;;;;;6159563;23;20440;-77
2021/10/23 12:27:16;;;;;;;1999.90;858.60;;;12.40;99.90;;;;;;6195544;23;20419;-78
2021/10/23 12:29:46;;;;;;;1999.90;963.93;;;12.50;99.90;;;;;;6159262;23;20467;-77
2021/10/23 12:32:16;;;;;;;1999.90;628.03;;;12.50;99.90;;;;;;6186066;23;20400;-77
2021/10/23 12:35:09;;;;;;;1999.90;732.47;;;12.50;99.90;;;;;;6195892;23;20476;-77
2021/10/23 12:37:43;;;;;;;1999.90;526.63;;;12.60;99.90;;;;;;6159393;23;20439;-77
2021/10/23 12:40:20;;;;;;;1999.90;882.30;;;12.60;99.90;;;;;;6159418;23;20439;-78
2021/10/23 12:42:50;;;;;;;1999.90;877.60;;;12.60;99.90;;;;;;6159265;23;20411;-77
2021/10/23 12:45:20;;;;;;;1999.90;799.40;;;12.60;99.90;;;;;;6185914;23;20431;-77
2021/10/23 12:47:48;;;;;;;1826.60;607.47;;;12.60;99.90;;;;;;6159062;23;20419;-78